createdAt,value
2022-10-11T00:00:20.621Z,5.80
2022-10-11T00:02:48.129Z,5.03
2022-10-11T00:05:16.081Z,5.60
2022-10-11T00:07:43.587Z,5.60
2022-10-11T00:10:11.066Z,5.13
2022-10-11T00:12:39.087Z,5.63
2022-10-11T00:15:08.037Z,5.10
2022-10-11T00:17:35.655Z,4.93
2022-10-11T00:20:04.399Z,5.60
2022-10-11T00:22:31.891Z,5.03
2022-10-11T00:24:59.549Z,5.40
2022-10-11T00:27:27.353Z,5.30
2022-10-11T00:29:54.947Z,5.85
2022-10-11T00:32:22.413Z,5.00
2022-10-11T00:34:50.025Z,6.20
2022-10-11T00:37:17.923Z,5.65
2022-10-11T00:39:45.424Z,5.38
2022-10-11T00:42:17.407Z,5.82
2022-10-11T00:44:48.527Z,5.72
2022-10-11T00:47:21.794Z,5.72
2022-10-11T00:49:53.087Z,5.70
2022-10-11T00:52:31.657Z,6.13
2022-10-11T00:55:08.788Z,5.60
2022-10-11T00:57:41.789Z,5.13
2022-10-11T01:00:12.242Z,5.90
2022-10-11T01:02:40.658Z,5.15
2022-10-11T01:05:28.542Z,5.75
2022-10-11T01:07:59.327Z,5.13
2022-10-11T01:10:28.508Z,5.65
2022-10-11T01:13:09.118Z,6.13
2022-10-11T01:15:53.813Z,6.15
2022-10-11T01:18:45.441Z,5.60
2022-10-11T01:21:37.630Z,5.95
2022-10-11T01:24:26.880Z,5.82
2022-10-11T01:27:32.177Z,6.97
2022-10-11T01:30:05.537Z,6.70
2022-10-11T01:32:32.927Z,6.18
2022-10-11T01:35:10.705Z,7.65
2022-10-11T01:38:00.796Z,6.85
2022-10-11T01:40:42.215Z,7.30
2022-10-11T01:43:10.393Z,6.90
2022-10-11T01:45:39.163Z,7.80
2022-10-11T01:48:12.647Z,7.40
2022-10-11T01:50:55.646Z,6.60
2022-10-11T01:53:36.015Z,7.68
2022-10-11T01:56:15.547Z,6.85
2022-10-11T01:58:57.837Z,7.35
2022-10-11T02:01:42.795Z,8.82
2022-10-11T02:04:43.902Z,8.02
2022-10-11T02:07:23.454Z,8.38
2022-10-11T02:10:08.117Z,8.32
2022-10-11T02:12:44.678Z,8.35
2022-10-11T02:15:16.078Z,8.52
2022-10-11T02:17:56.472Z,8.75
2022-10-11T02:20:27.807Z,8.48
2022-10-11T02:23:03.897Z,8.93
2022-10-11T02:25:34.582Z,9.00
2022-10-11T02:28:06.317Z,8.18
2022-10-11T02:30:35.619Z,8.88
2022-10-11T02:33:09.231Z,8.73
2022-10-11T02:35:41.615Z,9.07
2022-10-11T02:38:23.526Z,9.07
2022-10-11T02:41:23.035Z,8.93
2022-10-11T02:44:06.745Z,8.65
2022-10-11T02:46:35.047Z,8.30
2022-10-11T02:49:02.598Z,9.75
2022-10-11T02:51:31.698Z,8.50
2022-10-11T02:53:59.648Z,8.88
2022-10-11T02:56:27.198Z,7.63
2022-10-11T02:58:54.645Z,8.60
2022-10-11T03:01:22.269Z,8.05
2022-10-11T03:03:49.817Z,8.38
2022-10-11T03:06:17.235Z,7.53
2022-10-11T03:08:44.736Z,7.40
2022-10-11T03:11:12.155Z,7.68
2022-10-11T03:13:39.612Z,7.10
2022-10-11T03:16:07.117Z,7.80
2022-10-11T03:18:34.619Z,6.97
2022-10-11T03:21:02.007Z,6.63
2022-10-11T03:23:29.625Z,8.07
2022-10-11T03:25:57.116Z,7.20
2022-10-11T03:28:24.683Z,8.10
2022-10-11T03:30:52.639Z,7.50
2022-10-11T03:33:20.824Z,6.45
2022-10-11T03:35:49.092Z,7.13
2022-10-11T03:38:20.653Z,6.25
2022-10-11T03:40:48.306Z,6.20
2022-10-11T03:43:15.796Z,6.82
2022-10-11T03:45:43.294Z,7.03
2022-10-11T03:48:11.439Z,6.22
2022-10-11T03:50:39.417Z,6.07
2022-10-11T03:53:09.408Z,6.15
2022-10-11T03:55:39.386Z,6.05
2022-10-11T03:58:07.946Z,6.53
2022-10-11T04:00:36.126Z,6.38
2022-10-11T04:03:06.726Z,5.90
2022-10-11T04:05:34.180Z,5.30
2022-10-11T04:08:01.639Z,5.75
2022-10-11T04:10:29.193Z,5.18
2022-10-11T04:12:56.657Z,5.35
2022-10-11T04:15:24.281Z,5.13
2022-10-11T04:17:51.756Z,5.30
2022-10-11T04:20:19.386Z,4.18
2022-10-11T04:22:46.888Z,4.43
2022-10-11T04:25:14.626Z,3.70
2022-10-11T04:27:42.087Z,4.60
2022-10-11T04:30:11.286Z,3.72
2022-10-11T04:32:38.733Z,3.30
2022-10-11T04:35:06.516Z,3.17
2022-10-11T04:37:34.169Z,2.67
2022-10-11T04:40:01.770Z,2.90
2022-10-11T04:42:29.485Z,2.95
2022-10-11T04:44:56.971Z,2.05
2022-10-11T04:47:24.444Z,2.30
2022-10-11T04:49:51.887Z,1.98
2022-10-11T04:52:22.159Z,2.60
2022-10-11T04:54:52.987Z,2.72
2022-10-11T04:57:20.497Z,2.20
2022-10-11T04:59:50.174Z,2.92
2022-10-11T05:02:18.414Z,2.17
2022-10-11T05:04:46.227Z,2.72
2022-10-11T05:07:13.788Z,2.25
2022-10-11T05:09:41.227Z,2.10
2022-10-11T05:12:09.007Z,2.42
2022-10-11T05:14:36.447Z,2.80
2022-10-11T05:17:03.917Z,2.20
2022-10-11T05:19:31.366Z,2.80
2022-10-11T05:21:58.888Z,1.90
2022-10-11T05:24:26.337Z,2.60
2022-10-11T05:26:53.786Z,2.58
2022-10-11T05:29:21.298Z,2.55
2022-10-11T05:31:48.795Z,2.33
2022-10-11T05:34:16.317Z,3.75
2022-10-11T05:36:43.788Z,2.70
2022-10-11T05:39:11.207Z,2.20
2022-10-11T05:41:38.633Z,2.30
2022-10-11T05:44:08.025Z,2.70
2022-10-11T05:46:35.451Z,2.25
2022-10-11T05:49:02.897Z,2.60
2022-10-11T05:51:30.363Z,2.88
2022-10-11T05:53:57.796Z,2.38
2022-10-11T05:56:26.047Z,2.25
2022-10-11T05:58:55.655Z,2.45
2022-10-11T06:01:26.741Z,2.17
2022-10-11T06:03:55.973Z,3.13
2022-10-11T06:06:23.956Z,2.10
2022-10-11T06:08:51.375Z,3.30
2022-10-11T06:11:25.528Z,2.05
2022-10-11T06:13:54.586Z,2.15
2022-10-11T06:16:22.112Z,2.05
2022-10-11T06:18:52.396Z,2.42
2022-10-11T06:21:19.908Z,2.50
2022-10-11T06:23:51.137Z,2.85
2022-10-11T06:26:19.308Z,2.13
2022-10-11T06:28:47.158Z,2.40
2022-10-11T06:31:14.838Z,2.58
2022-10-11T06:33:42.429Z,2.53
2022-10-11T06:36:13.007Z,2.40
2022-10-11T06:38:44.752Z,1.98
2022-10-11T06:41:21.177Z,2.63
2022-10-11T06:43:51.647Z,2.05
2022-10-11T06:46:21.639Z,2.83
2022-10-11T06:48:50.148Z,2.47
2022-10-11T06:51:20.952Z,2.50
2022-10-11T06:53:53.076Z,2.33
2022-10-11T06:56:20.735Z,2.42
2022-10-11T06:58:48.485Z,2.80
2022-10-11T07:01:18.748Z,2.65
2022-10-11T07:03:46.363Z,2.75
2022-10-11T07:06:17.466Z,2.67
2022-10-11T07:08:45.260Z,2.78
2022-10-11T07:11:25.088Z,2.10
2022-10-11T07:13:58.087Z,2.80
2022-10-11T07:16:26.918Z,2.60
2022-10-11T07:19:00.973Z,2.72
2022-10-11T07:21:30.603Z,2.72
2022-10-11T07:23:58.632Z,2.33
2022-10-11T07:26:26.777Z,2.83
2022-10-11T07:28:54.509Z,2.50
2022-10-11T07:31:24.663Z,3.03
2022-10-11T07:33:52.879Z,3.33
2022-10-11T07:36:20.614Z,2.67
2022-10-11T07:38:48.436Z,2.55
2022-10-11T07:41:16.387Z,2.58
2022-10-11T07:43:44.036Z,3.08
2022-10-11T07:46:11.831Z,2.70
2022-10-11T07:48:39.387Z,2.90
2022-10-11T07:51:12.407Z,2.70
2022-10-11T07:53:42.208Z,2.90
2022-10-11T07:56:12.699Z,2.88
2022-10-11T07:58:41.512Z,3.40
2022-10-11T08:01:10.216Z,2.75
2022-10-11T08:03:38.452Z,2.83
2022-10-11T08:06:09.721Z,3.85
2022-10-11T08:08:38.336Z,3.45
2022-10-11T08:11:06.115Z,3.22
2022-10-11T08:13:34.374Z,3.00
2022-10-11T08:16:09.299Z,3.20
2022-10-11T08:18:57.250Z,3.03
2022-10-11T08:21:26.925Z,3.10
2022-10-11T08:23:54.510Z,2.70
2022-10-11T08:26:22.526Z,3.20
2022-10-11T08:28:50.096Z,3.20
2022-10-11T08:31:18.116Z,2.80
2022-10-11T08:33:45.786Z,3.30
2022-10-11T08:36:13.643Z,3.28
2022-10-11T08:38:41.683Z,3.50
2022-10-11T08:41:40.988Z,2.90
2022-10-11T08:44:58.724Z,2.40
2022-10-11T08:47:39.177Z,2.40
2022-10-11T08:50:14.785Z,3.08
2022-10-11T08:52:53.857Z,2.70
2022-10-11T08:55:48.294Z,2.75
2022-10-11T08:58:20.655Z,2.42
2022-10-11T09:00:53.203Z,2.50
2022-10-11T09:03:28.567Z,2.47
2022-10-11T09:06:14.836Z,2.80
2022-10-11T09:08:49.360Z,2.90
2022-10-11T09:11:35.651Z,2.78
2022-10-11T09:14:12.002Z,2.65
2022-10-11T09:16:55.795Z,2.88
2022-10-11T09:19:43.357Z,2.95
2022-10-11T09:22:13.427Z,2.72
2022-10-11T09:24:41.237Z,2.63
2022-10-11T09:27:49.915Z,2.50
2022-10-11T09:30:17.310Z,2.88
2022-10-11T09:33:07.617Z,3.78
2022-10-11T09:35:42.578Z,2.92
2022-10-11T09:38:24.845Z,2.65
2022-10-11T09:41:19.544Z,2.33
2022-10-11T09:43:52.017Z,2.50
2022-10-11T09:46:53.086Z,2.45
2022-10-11T09:49:25.643Z,2.85
2022-10-11T09:51:56.017Z,2.95
2022-10-11T09:54:41.586Z,2.55
2022-10-11T09:57:31.071Z,2.92
2022-10-11T10:00:30.554Z,2.05
2022-10-11T10:03:03.254Z,2.60
2022-10-11T10:05:37.092Z,2.83
2022-10-11T10:10:38.916Z,1.83
2022-10-11T10:13:26.483Z,2.20
2022-10-11T10:15:58.026Z,2.38
2022-10-11T10:18:53.715Z,2.60
2022-10-11T10:21:34.212Z,2.00
2022-10-11T10:24:08.316Z,2.50
2022-10-11T10:26:36.129Z,2.53
2022-10-11T10:29:12.342Z,1.98
2022-10-11T10:32:14.943Z,2.00
2022-10-11T10:35:00.515Z,2.00
2022-10-11T10:37:32.666Z,2.00
2022-10-11T10:40:09.092Z,1.98
2022-10-11T10:42:37.592Z,1.92
2022-10-11T10:45:12.164Z,2.80
2022-10-11T10:47:57.092Z,2.03
2022-10-11T10:50:54.715Z,2.30
2022-10-11T10:53:37.877Z,1.70
2022-10-11T10:56:15.617Z,1.85
2022-10-11T10:58:49.533Z,1.60
2022-10-11T11:03:52.976Z,2.20
2022-10-11T11:06:45.457Z,1.83
2022-10-11T11:09:50.952Z,1.58
2022-10-11T11:12:49.672Z,1.50
2022-10-11T11:20:01.234Z,1.98
2022-10-11T11:22:43.554Z,1.77
2022-10-11T11:25:48.255Z,2.75
2022-10-11T11:28:53.185Z,2.50
2022-10-11T11:31:54.754Z,2.22
2022-10-11T11:34:34.237Z,1.55
2022-10-11T11:37:14.091Z,1.67
2022-10-11T11:39:46.305Z,1.83
2022-10-11T11:42:21.414Z,1.80
2022-10-11T11:44:51.284Z,1.65
2022-10-11T11:47:26.255Z,1.45
2022-10-11T11:50:01.262Z,2.33
2022-10-11T11:52:41.154Z,1.50
2022-10-11T11:55:56.894Z,2.33
2022-10-11T11:58:33.134Z,2.15
2022-10-11T12:01:07.253Z,2.55
2022-10-11T12:03:42.109Z,2.00
2022-10-11T12:06:12.691Z,1.80
2022-10-11T12:08:43.689Z,2.08
2022-10-11T12:11:37.196Z,2.42
2022-10-11T12:14:24.934Z,2.00
2022-10-11T12:17:12.753Z,1.90
2022-10-11T12:19:44.525Z,1.75
2022-10-11T12:22:27.235Z,1.85
2022-10-11T12:24:59.297Z,2.15
2022-10-11T12:28:17.974Z,1.40
2022-10-11T12:30:48.099Z,1.13
2022-10-11T12:33:41.856Z,1.83
2022-10-11T12:36:28.819Z,1.50
2022-10-11T12:39:21.001Z,1.65
2022-10-11T12:41:51.468Z,1.60
2022-10-11T12:44:18.863Z,1.27
2022-10-11T12:46:55.185Z,1.90
2022-10-11T12:49:43.907Z,1.75
2022-10-11T12:52:17.785Z,2.15
2022-10-11T12:58:01.736Z,1.75
2022-10-11T13:00:57.138Z,1.67
2022-10-11T13:03:43.039Z,1.75
2022-10-11T13:06:21.916Z,1.88
2022-10-11T13:08:54.886Z,1.70
2022-10-11T13:11:31.083Z,1.70
2022-10-11T13:14:05.657Z,1.50
2022-10-11T13:16:57.211Z,1.40
2022-10-11T13:19:24.960Z,1.55
2022-10-11T13:21:59.367Z,1.67
2022-10-11T13:24:34.470Z,1.98
2022-10-11T13:27:02.597Z,1.58
2022-10-11T13:29:37.364Z,1.33
2022-10-11T13:32:13.479Z,1.30
2022-10-11T13:34:44.677Z,1.40
2022-10-11T13:37:22.659Z,1.70
2022-10-11T13:39:53.112Z,1.80
2022-10-11T13:42:29.748Z,1.77
2022-10-11T13:44:59.628Z,2.00
2022-10-11T13:47:30.017Z,1.50
2022-10-11T13:50:11.098Z,1.42
2022-10-11T13:52:55.424Z,1.48
2022-10-11T13:55:37.147Z,1.60
2022-10-11T13:58:18.714Z,1.63
2022-10-11T14:01:21.026Z,2.33
2022-10-11T14:03:57.465Z,1.80
2022-10-11T14:06:38.735Z,1.58
2022-10-11T14:09:14.171Z,1.60
2022-10-11T14:11:41.664Z,1.67
2022-10-11T14:14:29.107Z,1.83
2022-10-11T14:16:58.711Z,1.77
2022-10-11T14:19:26.150Z,1.27
2022-10-11T14:21:54.036Z,1.60
2022-10-11T14:24:22.435Z,1.55
2022-10-11T14:26:52.656Z,1.95
2022-10-11T14:29:31.595Z,1.63
2022-10-11T14:32:24.106Z,1.40
2022-10-11T14:34:52.811Z,2.10
2022-10-11T14:37:20.686Z,1.38
2022-10-11T14:39:48.885Z,1.88
2022-10-11T14:42:16.747Z,1.52
2022-10-11T14:44:44.626Z,1.17
2022-10-11T14:47:18.321Z,1.85
2022-10-11T14:49:45.756Z,1.13
2022-10-11T14:52:14.125Z,1.42
2022-10-11T14:54:41.655Z,1.23
2022-10-11T14:57:12.445Z,1.38
2022-10-11T14:59:40.141Z,1.92
2022-10-11T15:02:11.363Z,1.63
2022-10-11T15:04:38.876Z,1.52
2022-10-11T15:07:06.252Z,1.90
2022-10-11T15:09:33.777Z,1.90
2022-10-11T15:12:01.243Z,1.35
2022-10-11T15:14:28.815Z,1.48
2022-10-11T15:16:56.479Z,1.13
2022-10-11T15:19:25.153Z,1.00
2022-10-11T15:21:53.070Z,1.33
2022-10-11T15:24:20.634Z,1.00
2022-10-11T15:26:49.080Z,1.48
2022-10-11T15:29:18.097Z,1.35
2022-10-11T15:31:46.499Z,1.15
2022-10-11T15:34:14.520Z,1.33
2022-10-11T15:36:41.957Z,0.90
2022-10-11T15:39:24.514Z,1.20
2022-10-11T15:41:51.990Z,1.10
2022-10-11T15:44:19.426Z,1.05
2022-10-11T15:46:46.979Z,1.00
2022-10-11T15:49:14.633Z,1.10
2022-10-11T15:51:42.130Z,1.50
2022-10-11T15:54:09.632Z,1.00
2022-10-11T15:56:37.349Z,1.17
2022-10-11T15:59:04.890Z,1.88
2022-10-11T16:01:33.117Z,1.73
2022-10-11T16:04:00.626Z,1.13
2022-10-11T16:06:28.097Z,1.20
2022-10-11T16:08:55.642Z,1.38
2022-10-11T16:11:23.151Z,1.73
2022-10-11T16:13:50.590Z,1.30
2022-10-11T16:16:18.070Z,1.17
2022-10-11T16:18:45.491Z,1.70
2022-10-11T16:21:15.627Z,1.60
2022-10-11T16:23:43.367Z,2.50
2022-10-11T16:26:14.111Z,3.30
2022-10-11T16:28:42.213Z,3.03
2022-10-11T16:31:13.431Z,3.42
2022-10-11T16:33:46.133Z,3.22
2022-10-11T16:36:35.001Z,3.40
2022-10-11T16:39:07.129Z,2.83
2022-10-11T16:41:35.082Z,2.88
2022-10-11T16:44:03.251Z,2.60
2022-10-11T16:46:32.430Z,2.70
2022-10-11T16:49:00.341Z,2.10
2022-10-11T16:51:27.864Z,2.15
2022-10-11T16:53:55.229Z,2.33
2022-10-11T16:56:25.179Z,2.33
2022-10-11T16:58:54.232Z,2.17
2022-10-11T17:01:22.384Z,1.98
2022-10-11T17:03:50.766Z,2.50
2022-10-11T17:06:19.430Z,1.73
2022-10-11T17:08:47.011Z,1.65
2022-10-11T17:11:14.976Z,1.83
2022-10-11T17:13:42.640Z,2.28
2022-10-11T17:16:10.280Z,1.88
2022-10-11T17:18:37.920Z,1.52
2022-10-11T17:21:11.948Z,2.03
2022-10-11T17:23:39.638Z,1.92
2022-10-11T17:26:15.608Z,1.40
2022-10-11T17:28:43.604Z,1.50
2022-10-11T17:31:11.497Z,1.40
2022-10-11T17:33:39.246Z,1.60
2022-10-11T17:36:31.921Z,1.33
2022-10-11T17:39:01.598Z,1.73
2022-10-11T17:41:31.988Z,1.58
2022-10-11T17:44:01.290Z,1.60
2022-10-11T17:46:32.592Z,1.75
2022-10-11T17:49:02.324Z,2.03
2022-10-11T17:51:29.768Z,1.65
2022-10-11T17:53:57.590Z,2.13
2022-10-11T17:56:30.456Z,2.13
2022-10-11T17:59:00.119Z,2.08
2022-10-11T18:01:29.615Z,1.30
2022-10-11T18:04:03.132Z,1.30
2022-10-11T18:06:33.814Z,1.60
2022-10-11T18:09:02.739Z,1.48
2022-10-11T18:11:30.869Z,2.05
2022-10-11T18:13:58.520Z,1.73
2022-10-11T18:16:27.948Z,1.70
2022-10-11T18:18:57.605Z,1.77
2022-10-11T18:21:28.780Z,1.60
2022-10-11T18:24:03.284Z,2.15
2022-10-11T18:26:31.212Z,1.85
2022-10-11T18:28:59.858Z,1.92
2022-10-11T18:31:30.013Z,1.60
2022-10-11T18:33:57.937Z,1.52
2022-10-11T18:36:28.747Z,1.70
2022-10-11T18:39:00.044Z,1.45
2022-10-11T18:41:30.829Z,1.75
2022-10-11T18:44:04.341Z,1.40
2022-10-11T18:46:32.295Z,1.73
2022-10-11T18:49:02.254Z,1.63
2022-10-11T18:51:33.358Z,1.65
2022-10-11T18:54:01.279Z,1.77
2022-10-11T18:56:30.558Z,1.85
2022-10-11T18:58:59.098Z,1.35
2022-10-11T19:01:29.722Z,1.60
2022-10-11T19:03:59.360Z,1.75
2022-10-11T19:06:38.671Z,1.50
2022-10-11T19:09:10.039Z,1.65
2022-10-11T19:11:38.236Z,1.80
2022-10-11T19:14:08.473Z,1.60
2022-10-11T19:16:39.139Z,1.40
2022-10-11T19:19:08.176Z,1.67
2022-10-11T19:21:35.704Z,1.55
2022-10-11T19:24:03.479Z,1.55
2022-10-11T19:26:33.903Z,1.80
2022-10-11T19:29:10.216Z,2.10
2022-10-11T19:31:42.680Z,2.38
2022-10-11T19:34:11.077Z,1.80
2022-10-11T19:36:39.447Z,1.95
2022-10-11T19:39:06.953Z,2.20
2022-10-11T19:41:34.366Z,1.92
2022-10-11T19:44:02.231Z,1.92
2022-10-11T19:46:50.261Z,1.60
2022-10-11T19:49:20.447Z,1.70
2022-10-11T19:51:47.987Z,1.92
2022-10-11T19:54:16.167Z,1.73
2022-10-11T19:56:45.013Z,1.50
2022-10-11T19:59:13.246Z,2.47
2022-10-11T20:01:41.979Z,1.35
2022-10-11T20:04:27.505Z,1.60
2022-10-11T20:06:59.022Z,1.40
2022-10-11T20:09:30.822Z,1.95
2022-10-11T20:11:59.096Z,1.90
2022-10-11T20:14:26.895Z,2.17
2022-10-11T20:16:54.359Z,2.13
2022-10-11T20:19:25.009Z,2.60
2022-10-11T20:21:56.995Z,2.13
2022-10-11T20:24:24.556Z,2.30
2022-10-11T20:26:52.012Z,2.05
2022-10-11T20:29:19.466Z,2.30
2022-10-11T20:31:46.947Z,2.40
2022-10-11T20:34:14.806Z,2.50
2022-10-11T20:36:45.697Z,2.38
2022-10-11T20:39:16.007Z,2.00
2022-10-11T20:41:43.918Z,2.40
2022-10-11T20:44:13.275Z,2.45
2022-10-11T20:46:40.712Z,2.08
2022-10-11T20:49:10.909Z,3.47
2022-10-11T20:51:40.071Z,2.85
2022-10-11T20:54:07.786Z,2.80
2022-10-11T20:56:37.082Z,2.45
2022-10-11T20:59:05.222Z,1.98
2022-10-11T21:01:37.286Z,1.80
2022-10-11T21:04:06.365Z,2.00
2022-10-11T21:06:34.433Z,2.05
2022-10-11T21:09:02.414Z,2.35
2022-10-11T21:11:32.378Z,1.70
2022-10-11T21:14:05.077Z,1.60
2022-10-11T21:16:34.031Z,2.28
2022-10-11T21:19:02.663Z,2.33
2022-10-11T21:21:30.857Z,1.70
2022-10-11T21:24:01.260Z,2.45
2022-10-11T21:26:29.692Z,2.05
2022-10-11T21:28:59.420Z,2.15
2022-10-11T21:31:31.255Z,2.15
2022-10-11T21:34:02.621Z,1.90
2022-10-11T21:36:30.164Z,1.67
2022-10-11T21:38:57.785Z,1.90
2022-10-11T21:41:26.987Z,1.70
2022-10-11T21:43:54.558Z,1.70
2022-10-11T21:46:47.676Z,1.73
2022-10-11T21:49:15.142Z,2.00
2022-10-11T21:51:42.772Z,2.15
2022-10-11T21:54:10.272Z,1.60
2022-10-11T21:56:37.640Z,1.63
2022-10-11T21:59:07.938Z,1.40
2022-10-11T22:01:39.271Z,1.77
2022-10-11T22:04:10.409Z,1.90
2022-10-11T22:06:38.524Z,1.92
2022-10-11T22:09:06.611Z,1.88
2022-10-11T22:11:34.646Z,1.88
2022-10-11T22:14:02.450Z,2.03
2022-10-11T22:16:30.004Z,1.60
2022-10-11T22:18:57.474Z,2.05
2022-10-11T22:21:24.889Z,2.20
2022-10-11T22:23:54.138Z,1.83
2022-10-11T22:26:24.225Z,1.80
2022-10-11T22:28:53.511Z,2.03
2022-10-11T22:31:22.117Z,1.98
2022-10-11T22:33:54.481Z,2.22
2022-10-11T22:36:24.191Z,2.10
2022-10-11T22:38:53.034Z,2.30
2022-10-11T22:41:20.860Z,2.67
2022-10-11T22:43:48.503Z,2.15
2022-10-11T22:46:16.213Z,2.33
2022-10-11T22:48:43.679Z,2.33
2022-10-11T22:51:11.132Z,2.03
2022-10-11T22:53:39.044Z,1.60
2022-10-11T22:56:06.729Z,1.90
2022-10-11T22:58:34.370Z,1.60
2022-10-11T23:01:13.592Z,2.10
2022-10-11T23:03:41.271Z,2.15
2022-10-11T23:06:08.843Z,2.38
2022-10-11T23:08:36.319Z,1.88
2022-10-11T23:11:08.012Z,2.40
2022-10-11T23:13:35.838Z,2.63
2022-10-11T23:16:11.416Z,1.75
2022-10-11T23:18:39.283Z,1.88
2022-10-11T23:21:07.762Z,2.05
2022-10-11T23:23:35.833Z,2.05
2022-10-11T23:26:05.832Z,1.95
2022-10-11T23:28:33.591Z,2.00
2022-10-11T23:31:01.226Z,2.10
2022-10-11T23:33:29.608Z,2.03
2022-10-11T23:35:57.132Z,1.80
2022-10-11T23:38:24.603Z,2.00
2022-10-11T23:40:52.154Z,1.52
2022-10-11T23:43:19.618Z,2.00
2022-10-11T23:45:47.142Z,1.83
2022-10-11T23:48:14.662Z,1.90
2022-10-11T23:50:42.622Z,2.28
2022-10-11T23:53:10.925Z,2.00
2022-10-11T23:55:38.321Z,2.33
2022-10-11T23:58:05.932Z,2.20
